Time;durP1;ratioP1;P1;durP2;ratioP2;P2;SDS_P1;SDS_P2;PMS_P1;PMS_P2;Temp;Humidity;BMP_temperature;BMP_pressure;BME280_temperature;BME280_humidity;BME280_pressure;Samples;Min_cycle;Max_cycle;Signal;HPM_P1;HPM_P2
2022/04/14 00:01:27;;;;;;;18.97;11.43;;;8.30;99.90;;;;;;5028154;28;20036;-78
2022/04/14 00:03:52;;;;;;;16.47;11.47;;;8.20;99.90;;;;;;5026880;28;20042;-78
2022/04/14 00:06:18;;;;;;;20.23;11.93;;;8.20;99.90;;;;;;5026435;28;20057;-79
2022/04/14 00:08:43;;;;;;;19.20;12.23;;;8.20;99.90;;;;;;5028571;28;20040;-78
2022/04/14 00:11:09;;;;;;;20.07;11.90;;;8.20;99.90;;;;;;5029477;28;20029;-78
2022/04/14 00:13:34;;;;;;;17.50;11.87;;;8.20;99.90;;;;;;5024926;28;20021;-78
2022/04/14 00:16:00;;;;;;;20.53;12.57;;;8.20;99.90;;;;;;5021469;28;20025;-78
2022/04/14 00:18:26;;;;;;;20.83;11.87;;;8.20;99.90;;;;;;5021610;28;20034;-77
2022/04/14 00:20:51;;;;;;;18.27;13.17;;;8.20;99.90;;;;;;5041251;28;20037;-78
2022/04/14 00:23:17;;;;;;;19.40;12.17;;;8.20;99.90;;;;;;5027925;28;20037;-78
2022/04/14 00:25:42;;;;;;;18.60;11.87;;;8.20;99.90;;;;;;5028447;28;20037;-78
2022/04/14 00:28:08;;;;;;;22.50;12.80;;;8.20;99.90;;;;;;5028427;28;20034;-78
2022/04/14 00:30:33;;;;;;;18.70;11.67;;;8.20;99.90;;;;;;5043779;28;20025;-79
2022/04/14 00:32:59;;;;;;;19.50;12.73;;;8.10;99.90;;;;;;5027952;28;20030;-78
2022/04/14 00:35:24;;;;;;;20.60;11.53;;;8.10;99.90;;;;;;5026538;28;20076;-78
2022/04/14 00:37:50;;;;;;;18.57;12.33;;;8.10;99.90;;;;;;5043075;28;20113;-78
2022/04/14 00:40:16;;;;;;;18.20;12.73;;;8.10;99.90;;;;;;5028069;28;20026;-79
2022/04/14 00:42:41;;;;;;;18.97;12.80;;;8.10;99.90;;;;;;5030014;28;20080;-79
2022/04/14 00:45:08;;;;;;;18.27;12.37;;;8.10;99.90;;;;;;5029589;28;20057;-79
2022/04/14 00:47:35;;;;;;;21.07;13.03;;;8.10;99.90;;;;;;5027352;28;20045;-78
2022/04/14 00:50:02;;;;;;;19.20;12.63;;;8.10;99.90;;;;;;5026887;28;20076;-78
2022/04/14 00:52:28;;;;;;;18.70;12.47;;;8.10;99.90;;;;;;5016798;28;20784;-80
2022/04/14 00:54:53;;;;;;;19.87;13.00;;;8.10;99.90;;;;;;5010342;28;20037;-80
2022/04/14 00:57:19;;;;;;;20.50;12.97;;;8.10;99.90;;;;;;5010322;28;20524;-80
2022/04/14 00:59:44;;;;;;;23.57;12.80;;;8.10;99.90;;;;;;5012121;28;20036;-81
2022/04/14 01:02:10;;;;;;;21.73;12.83;;;8.10;99.90;;;;;;5014348;28;20410;-80
2022/04/14 01:04:37;;;;;;;19.60;12.73;;;8.10;99.90;;;;;;5014432;28;20026;-81
2022/04/14 01:07:06;;;;;;;18.03;13.40;;;8.10;99.90;;;;;;5014453;28;20096;-80
2022/04/14 01:09:33;;;;;;;20.63;12.60;;;8.10;99.90;;;;;;5014818;28;20026;-80
2022/04/14 01:11:59;;;;;;;18.93;12.77;;;8.10;99.90;;;;;;5014066;28;20125;-80
2022/04/14 01:14:32;;;;;;;18.87;13.43;;;8.10;99.90;;;;;;5014804;28;20104;-80
2022/04/14 01:17:00;;;;;;;19.37;12.53;;;8.00;99.90;;;;;;5014221;28;20048;-80
2022/04/14 01:19:27;;;;;;;17.53;13.07;;;8.00;99.90;;;;;;5013926;28;20034;-80
2022/04/14 01:21:55;;;;;;;19.73;13.10;;;8.00;99.90;;;;;;5014077;28;20049;-80
2022/04/14 01:24:21;;;;;;;15.80;12.20;;;8.00;99.90;;;;;;5015012;28;20093;-81
2022/04/14 01:26:46;;;;;;;18.33;12.53;;;8.00;99.90;;;;;;5026435;28;20491;-81
2022/04/14 01:29:25;;;;;;;17.27;12.13;;;8.00;99.90;;;;;;4994418;28;20030;-81
2022/04/14 01:31:53;;;;;;;19.43;12.30;;;8.00;99.90;;;;;;4993780;28;20114;-81
2022/04/14 01:34:18;;;;;;;17.27;12.53;;;8.00;99.90;;;;;;4993827;28;20065;-81
2022/04/14 01:36:44;;;;;;;18.33;12.70;;;8.00;99.90;;;;;;4993813;28;20034;-81
2022/04/14 01:39:11;;;;;;;22.93;14.03;;;7.90;99.90;;;;;;4993259;28;20105;-80
2022/04/14 01:41:38;;;;;;;17.33;12.87;;;7.90;99.90;;;;;;4993247;28;20651;-80
2022/04/14 01:44:04;;;;;;;23.47;13.70;;;7.90;99.90;;;;;;4993953;28;20093;-80
2022/04/14 01:46:29;;;;;;;19.60;13.90;;;7.80;99.90;;;;;;4993867;28;20169;-81
2022/04/14 01:48:55;;;;;;;25.37;14.37;;;7.80;99.90;;;;;;5005626;28;20034;-81
2022/04/14 01:51:21;;;;;;;20.67;13.60;;;7.80;99.90;;;;;;5010034;28;20038;-80
2022/04/14 01:53:46;;;;;;;21.77;12.43;;;7.80;99.90;;;;;;5013402;28;20026;-80
2022/04/14 01:56:12;;;;;;;20.60;13.63;;;7.80;99.90;;;;;;5028280;28;20387;-80
2022/04/14 01:58:38;;;;;;;21.07;13.90;;;7.80;99.90;;;;;;5013239;28;20034;-80
2022/04/14 02:01:03;;;;;;;22.17;13.63;;;7.80;99.90;;;;;;5013150;28;20529;-81
2022/04/14 02:03:29;;;;;;;19.90;13.03;;;7.70;99.90;;;;;;5013008;28;20532;-81
2022/04/14 02:05:54;;;;;;;19.17;13.37;;;7.70;99.90;;;;;;5012956;28;20025;-81
2022/04/14 02:08:21;;;;;;;17.87;13.47;;;7.70;99.90;;;;;;5012835;28;20030;-81
2022/04/14 02:10:46;;;;;;;20.50;13.20;;;7.70;99.90;;;;;;5011599;28;20022;-80
2022/04/14 02:13:12;;;;;;;19.73;13.67;;;7.70;99.90;;;;;;5011649;28;20037;-81
2022/04/14 02:15:37;;;;;;;21.40;13.37;;;7.70;99.90;;;;;;5012655;28;20083;-81
2022/04/14 02:18:03;;;;;;;22.03;13.70;;;7.70;99.90;;;;;;5028637;28;20479;-81
2022/04/14 02:20:29;;;;;;;21.90;12.90;;;7.60;99.90;;;;;;5011809;28;20471;-81
2022/04/14 02:22:54;;;;;;;19.77;13.17;;;7.70;99.90;;;;;;5012881;28;20029;-81
2022/04/14 02:25:20;;;;;;;19.27;13.50;;;7.60;99.90;;;;;;5027961;28;20121;-81
2022/04/14 02:27:46;;;;;;;22.47;13.50;;;7.60;99.90;;;;;;5027909;28;20021;-80
2022/04/14 02:30:12;;;;;;;22.13;12.80;;;7.60;99.90;;;;;;5012961;28;20140;-81
2022/04/14 02:32:38;;;;;;;18.53;12.53;;;7.60;99.90;;;;;;5012360;28;20046;-80
2022/04/14 02:35:04;;;;;;;16.17;12.03;;;7.50;99.90;;;;;;5011398;28;20091;-81
2022/04/14 02:37:30;;;;;;;20.30;12.70;;;7.50;99.90;;;;;;5012327;28;20872;-81
2022/04/14 02:39:56;;;;;;;21.97;14.03;;;7.40;99.90;;;;;;5012687;28;20452;-80
2022/04/14 02:42:21;;;;;;;20.90;13.07;;;7.40;99.90;;;;;;5012473;28;20041;-81
2022/04/14 02:44:47;;;;;;;20.87;13.20;;;7.40;99.90;;;;;;5012058;28;20109;-81
2022/04/14 02:47:12;;;;;;;20.37;13.27;;;7.40;99.90;;;;;;5010237;28;20045;-81
2022/04/14 02:49:38;;;;;;;20.13;13.60;;;7.40;99.90;;;;;;5002407;28;20029;-80
2022/04/14 02:52:04;;;;;;;20.93;13.30;;;7.30;99.90;;;;;;5010448;28;20034;-81
2022/04/14 02:54:29;;;;;;;16.23;11.93;;;7.30;99.90;;;;;;5011951;28;20026;-81
2022/04/14 02:56:55;;;;;;;20.50;12.03;;;7.30;99.90;;;;;;5011939;28;20018;-81
2022/04/14 02:59:20;;;;;;;21.10;12.60;;;7.20;99.90;;;;;;5011915;28;20033;-81
2022/04/14 03:01:46;;;;;;;19.80;13.30;;;7.20;99.90;;;;;;5011691;28;20088;-81
2022/04/14 03:04:12;;;;;;;20.83;14.10;;;7.20;99.90;;;;;;5012018;28;20101;-81
2022/04/14 03:06:37;;;;;;;20.97;14.50;;;7.20;99.90;;;;;;5011544;28;20636;-81
2022/04/14 03:09:03;;;;;;;23.33;14.67;;;7.20;99.90;;;;;;5010867;28;20850;-81
2022/04/14 03:11:28;;;;;;;20.23;13.40;;;7.20;99.90;;;;;;5011658;28;20033;-81
2022/04/14 03:13:54;;;;;;;25.03;14.40;;;7.20;99.90;;;;;;5011742;28;20439;-81
2022/04/14 03:16:19;;;;;;;17.70;13.63;;;7.20;99.90;;;;;;5011772;28;20030;-81
2022/04/14 03:18:45;;;;;;;23.30;15.13;;;7.20;99.90;;;;;;5011572;28;20106;-81
2022/04/14 03:21:11;;;;;;;22.17;14.50;;;7.20;99.90;;;;;;5011407;28;20430;-81
2022/04/14 03:23:39;;;;;;;20.07;13.57;;;7.20;99.90;;;;;;5026541;28;20080;-81
2022/04/14 03:26:08;;;;;;;18.87;12.80;;;7.10;99.90;;;;;;5011439;28;20418;-81
2022/04/14 03:28:34;;;;;;;20.60;13.93;;;7.10;99.90;;;;;;5011225;28;20026;-81
2022/04/14 03:30:59;;;;;;;26.93;14.50;;;7.10;99.90;;;;;;5011290;28;20026;-81
2022/04/14 03:33:25;;;;;;;21.73;13.90;;;7.00;99.90;;;;;;5011380;28;20038;-81
2022/04/14 03:35:51;;;;;;;26.17;13.87;;;7.00;99.90;;;;;;5011332;28;20032;-81
2022/04/14 03:38:16;;;;;;;22.67;13.57;;;7.00;99.90;;;;;;5009915;28;20021;-81
2022/04/14 03:40:42;;;;;;;22.57;12.87;;;7.00;99.90;;;;;;5011090;28;20026;-81
2022/04/14 03:43:07;;;;;;;19.83;12.53;;;7.00;99.90;;;;;;5011301;28;20072;-81
2022/04/14 03:45:33;;;;;;;17.10;11.10;;;7.00;99.90;;;;;;5009781;28;20065;-81
2022/04/14 03:47:58;;;;;;;17.30;10.67;;;6.90;99.90;;;;;;5005049;28;20033;-81
2022/04/14 03:50:24;;;;;;;19.33;13.37;;;6.80;99.90;;;;;;5003779;28;20022;-81
2022/04/14 03:52:49;;;;;;;20.83;12.87;;;6.80;99.90;;;;;;5010874;28;20026;-81
2022/04/14 03:55:15;;;;;;;17.30;13.87;;;6.70;99.90;;;;;;5011161;28;20026;-81
2022/04/14 03:57:41;;;;;;;23.73;13.47;;;6.70;99.90;;;;;;5010977;28;20030;-81
2022/04/14 04:00:07;;;;;;;25.40;15.00;;;6.70;99.90;;;;;;5010789;28;20022;-81
2022/04/14 04:02:36;;;;;;;24.83;15.60;;;6.70;99.90;;;;;;5010583;28;20026;-80
2022/04/14 04:05:02;;;;;;;27.17;16.60;;;6.60;99.90;;;;;;5009550;28;20026;-80
2022/04/14 04:07:30;;;;;;;19.57;14.43;;;6.60;99.90;;;;;;5009985;28;20057;-80
2022/04/14 04:09:56;;;;;;;21.50;16.13;;;6.60;99.90;;;;;;5015281;28;20030;-81
2022/04/14 04:12:21;;;;;;;24.00;16.83;;;6.50;99.90;;;;;;5010747;28;20030;-80
2022/04/14 04:14:48;;;;;;;23.53;16.63;;;6.50;99.90;;;;;;5020737;28;20114;-80
2022/04/14 04:17:14;;;;;;;21.03;15.17;;;6.50;99.90;;;;;;5029388;28;20025;-80
2022/04/14 04:19:40;;;;;;;24.33;15.37;;;6.50;99.90;;;;;;5026033;28;20028;-81
2022/04/14 04:22:06;;;;;;;22.97;15.47;;;6.40;99.90;;;;;;5019005;28;20018;-81
2022/04/14 04:24:32;;;;;;;22.70;15.47;;;6.40;99.90;;;;;;5026758;28;20032;-81
2022/04/14 04:26:57;;;;;;;24.07;14.53;;;6.40;99.90;;;;;;5024984;28;20125;-81
2022/04/14 04:29:23;;;;;;;22.70;15.50;;;6.40;99.90;;;;;;5024761;28;20490;-80
2022/04/14 04:31:48;;;;;;;26.30;16.37;;;6.40;99.90;;;;;;5024766;28;20033;-81
2022/04/14 04:34:14;;;;;;;27.00;15.87;;;6.40;99.90;;;;;;5028949;28;20402;-81
2022/04/14 04:36:39;;;;;;;24.63;16.23;;;6.40;99.90;;;;;;5027450;28;20049;-81
2022/04/14 04:39:05;;;;;;;23.43;15.23;;;6.40;99.90;;;;;;5032811;28;20027;-81
2022/04/14 04:41:31;;;;;;;22.90;14.27;;;6.40;99.90;;;;;;5031113;28;20380;-80
2022/04/14 04:43:56;;;;;;;20.47;13.87;;;6.40;99.90;;;;;;5031641;28;20021;-81
2022/04/14 04:46:22;;;;;;;20.73;15.10;;;6.40;99.90;;;;;;5030170;28;20096;-81
2022/04/14 04:48:47;;;;;;;24.70;15.27;;;6.40;99.90;;;;;;5024687;28;20065;-81
2022/04/14 04:51:13;;;;;;;22.33;14.37;;;6.40;99.90;;;;;;5026015;28;20668;-81
2022/04/14 04:53:39;;;;;;;26.60;14.00;;;6.40;99.90;;;;;;5032480;28;20032;-81
2022/04/14 04:56:04;;;;;;;24.43;15.37;;;6.50;99.90;;;;;;5028264;28;20096;-81
2022/04/14 04:58:30;;;;;;;21.37;15.20;;;6.50;99.90;;;;;;5045333;28;20017;-81
2022/04/14 05:00:56;;;;;;;25.00;14.40;;;6.50;99.90;;;;;;5026600;28;20050;-81
2022/04/14 05:03:22;;;;;;;19.00;12.27;;;6.50;99.90;;;;;;5028057;28;20053;-81
2022/04/14 05:05:48;;;;;;;20.20;12.70;;;6.50;99.90;;;;;;5029412;28;20083;-81
2022/04/14 05:08:13;;;;;;;18.60;13.07;;;6.60;99.90;;;;;;5042814;28;20022;-77
2022/04/14 05:10:39;;;;;;;20.90;14.27;;;6.60;99.90;;;;;;5017193;28;20429;-83
2022/04/14 05:13:04;;;;;;;21.43;14.40;;;6.60;99.90;;;;;;5015043;28;20463;-83
2022/04/14 05:15:31;;;;;;;20.90;15.00;;;6.70;99.90;;;;;;5020541;28;20104;-83
2022/04/14 05:17:56;;;;;;;26.00;15.27;;;6.70;99.90;;;;;;5027675;28;20030;-80
2022/04/14 05:20:22;;;;;;;22.73;14.37;;;6.80;99.90;;;;;;5026024;28;20021;-74
2022/04/14 05:22:48;;;;;;;25.57;14.77;;;6.90;99.90;;;;;;5033585;28;20053;-82
2022/04/14 05:25:14;;;;;;;23.13;15.10;;;6.90;99.90;;;;;;5021487;28;20550;-82
2022/04/14 05:27:42;;;;;;;22.20;15.70;;;7.00;99.90;;;;;;5011672;28;20042;-82
2022/04/14 05:30:08;;;;;;;28.23;15.27;;;7.10;99.90;;;;;;5010538;28;20121;-82
2022/04/14 05:32:33;;;;;;;23.90;15.20;;;7.20;99.90;;;;;;5024984;28;20038;-82
2022/04/14 05:34:59;;;;;;;24.63;15.20;;;7.30;99.90;;;;;;5030029;28;20048;-82
2022/04/14 05:37:25;;;;;;;23.40;15.53;;;7.40;99.90;;;;;;5014529;28;20038;-83
2022/04/14 05:39:51;;;;;;;22.77;15.07;;;7.50;99.90;;;;;;5010425;28;20026;-83
2022/04/14 05:42:16;;;;;;;22.93;15.73;;;7.70;99.90;;;;;;5010299;28;20062;-83
2022/04/14 05:44:42;;;;;;;22.67;15.17;;;7.80;99.90;;;;;;5010380;28;20088;-82
2022/04/14 05:47:07;;;;;;;22.37;14.60;;;7.90;99.90;;;;;;5008473;28;20064;-82
2022/04/14 05:49:33;;;;;;;22.07;15.83;;;8.10;99.90;;;;;;5005735;28;20458;-82
2022/04/14 05:51:59;;;;;;;23.70;15.10;;;8.30;99.90;;;;;;5008614;28;20038;-82
2022/04/14 05:54:24;;;;;;;19.73;13.70;;;8.40;99.90;;;;;;5009568;28;20109;-82
2022/04/14 05:56:50;;;;;;;19.43;13.57;;;8.70;99.90;;;;;;5024119;28;20027;-82
2022/04/14 05:59:16;;;;;;;20.07;13.57;;;8.90;99.90;;;;;;5002257;28;20332;-76
2022/04/14 06:01:46;;;;;;;20.23;13.00;;;9.10;99.90;;;;;;5006682;28;20026;-77
2022/04/14 06:04:12;;;;;;;19.50;13.30;;;9.30;99.90;;;;;;5008019;28;20457;-77
2022/04/14 06:06:39;;;;;;;15.77;12.47;;;9.40;99.90;;;;;;5006643;28;20103;-82
2022/04/14 06:09:06;;;;;;;22.57;13.60;;;9.60;99.90;;;;;;5006227;28;20105;-77
2022/04/14 06:11:31;;;;;;;19.70;12.07;;;9.80;99.90;;;;;;5009082;28;20101;-76
2022/04/14 06:13:57;;;;;;;20.47;11.67;;;10.00;99.90;;;;;;5018103;28;20220;-79
2022/04/14 06:16:23;;;;;;;20.03;12.23;;;10.10;99.90;;;;;;5018418;28;20664;-79
2022/04/14 06:18:51;;;;;;;17.73;12.23;;;10.30;99.90;;;;;;5029391;28;20021;-79
2022/04/14 06:21:16;;;;;;;20.37;12.83;;;10.40;99.90;;;;;;5034785;28;20033;-80
2022/04/14 06:23:42;;;;;;;17.13;12.03;;;10.50;99.90;;;;;;5033582;28;20021;-80
2022/04/14 06:26:07;;;;;;;19.97;13.40;;;10.60;99.90;;;;;;5034802;28;20084;-81
2022/04/14 06:28:34;;;;;;;20.07;13.00;;;10.80;99.90;;;;;;5035026;28;20029;-81
2022/04/14 06:31:01;;;;;;;16.83;12.43;;;11.00;99.90;;;;;;5033335;28;20026;-81
2022/04/14 06:33:30;;;;;;;17.63;12.63;;;11.10;99.90;;;;;;5034505;28;20041;-81
2022/04/14 06:35:58;;;;;;;26.13;12.77;;;11.30;99.90;;;;;;5034853;28;20065;-81
2022/04/14 06:38:26;;;;;;;23.05;12.68;;;11.50;99.90;;;;;;5034513;28;20435;-81
2022/04/14 06:40:51;;;;;;;15.20;11.23;;;11.70;99.90;;;;;;5034409;28;20021;-79
2022/04/14 06:43:17;;;;;;;19.73;11.32;;;11.80;99.90;;;;;;5034360;28;20037;-79
2022/04/14 06:45:43;;;;;;;19.63;11.63;;;12.00;99.90;;;;;;5034207;28;20059;-79
2022/04/14 06:48:09;;;;;;;16.35;11.10;;;12.00;99.90;;;;;;5034206;28;20036;-79
2022/04/14 06:50:35;;;;;;;15.30;11.07;;;12.10;99.90;;;;;;5033985;28;20037;-80
2022/04/14 06:53:01;;;;;;;22.35;11.88;;;12.30;99.90;;;;;;5034065;28;20425;-79
2022/04/14 06:55:27;;;;;;;16.38;10.57;;;12.50;99.90;;;;;;5023575;28;20037;-79
2022/04/14 06:57:53;;;;;;;14.80;9.75;;;12.70;99.90;;;;;;5013871;28;20010;-79
2022/04/14 07:00:21;;;;;;;23.17;10.38;;;12.80;99.90;;;;;;5012862;28;20327;-80
2022/04/14 07:02:48;;;;;;;13.57;10.18;;;12.90;99.90;;;;;;5013952;28;20021;-80
2022/04/14 07:05:13;;;;;;;15.00;10.90;;;13.00;99.90;;;;;;5013884;28;20080;-79
2022/04/14 07:07:39;;;;;;;20.85;10.70;;;13.20;99.90;;;;;;5013637;28;20418;-80
2022/04/14 07:10:05;;;;;;;14.70;10.45;;;13.30;99.90;;;;;;5013513;28;20026;-80
2022/04/14 07:12:30;;;;;;;15.38;9.43;;;13.40;99.90;;;;;;5011826;28;20061;-80
2022/04/14 07:14:56;;;;;;;13.18;9.93;;;13.50;99.90;;;;;;5012422;28;20030;-84
2022/04/14 07:17:22;;;;;;;18.30;10.02;;;13.60;99.90;;;;;;5014223;28;20097;-80
2022/04/14 07:19:48;;;;;;;15.73;9.48;;;13.70;99.90;;;;;;5014509;28;20042;-80
2022/04/14 07:22:20;;;;;;;16.67;9.98;;;13.80;99.90;;;;;;5012691;28;20064;-81
2022/04/14 07:24:50;;;;;;;15.75;9.88;;;13.80;99.90;;;;;;5014680;28;20109;-80
2022/04/14 07:27:20;;;;;;;16.60;9.85;;;13.90;99.90;;;;;;5013986;28;20030;-80
2022/04/14 07:29:46;;;;;;;14.63;10.25;;;14.00;99.90;;;;;;5014167;28;20340;-81
2022/04/14 07:32:13;;;;;;;18.20;10.07;;;14.10;99.90;;;;;;5013802;28;20088;-81
2022/04/14 07:34:38;;;;;;;17.80;10.73;;;14.10;99.90;;;;;;5013874;28;20080;-81
2022/04/14 07:37:04;;;;;;;18.08;9.63;;;14.20;99.90;;;;;;5013760;28;20033;-80
2022/04/14 07:39:31;;;;;;;16.73;9.95;;;14.30;99.90;;;;;;5012348;28;20452;-80
2022/04/14 07:41:56;;;;;;;15.77;10.55;;;14.30;99.90;;;;;;5014199;28;20371;-80
2022/04/14 07:44:22;;;;;;;16.13;9.82;;;14.40;99.90;;;;;;5012503;28;20026;-80
2022/04/14 07:46:47;;;;;;;16.08;9.95;;;14.50;99.90;;;;;;5013348;28;20033;-80
2022/04/14 07:49:13;;;;;;;15.73;10.10;;;14.60;99.90;;;;;;5013598;28;20026;-81
2022/04/14 07:51:40;;;;;;;15.20;10.18;;;14.70;99.90;;;;;;5013520;28;20065;-80
2022/04/14 07:54:06;;;;;;;18.27;10.82;;;14.80;99.90;;;;;;5013530;28;20022;-80
2022/04/14 07:56:32;;;;;;;17.30;9.95;;;14.90;99.90;;;;;;5012437;28;20109;-81
2022/04/14 07:58:59;;;;;;;14.98;10.25;;;14.90;99.90;;;;;;5013666;28;20021;-81
2022/04/14 08:01:25;;;;;;;14.70;10.32;;;15.00;99.90;;;;;;5013604;28;20053;-81
2022/04/14 08:03:51;;;;;;;17.20;10.98;;;15.20;99.90;;;;;;5013536;28;20025;-81
2022/04/14 08:06:17;;;;;;;18.20;11.02;;;15.30;99.90;;;;;;5013445;28;20026;-81
2022/04/14 08:08:42;;;;;;;19.13;10.63;;;15.40;99.90;;;;;;5012522;28;20454;-81
2022/04/14 08:11:10;;;;;;;22.75;10.20;;;15.50;99.90;;;;;;5013118;28;20372;-81
2022/04/14 08:13:40;;;;;;;20.70;10.70;;;15.60;99.90;;;;;;5012012;28;20026;-81
2022/04/14 08:16:08;;;;;;;17.00;11.07;;;15.70;99.90;;;;;;5013205;28;20014;-82
2022/04/14 08:18:36;;;;;;;19.50;11.68;;;15.70;99.90;;;;;;5013270;28;20105;-79
2022/04/14 08:21:02;;;;;;;18.98;10.80;;;15.90;99.90;;;;;;5013150;28;20057;-79
2022/04/14 08:23:28;;;;;;;21.77;11.68;;;15.90;99.90;;;;;;5013384;28;20034;-79
2022/04/14 08:25:53;;;;;;;17.05;11.82;;;16.20;99.90;;;;;;5013417;28;20502;-79
2022/04/14 08:28:19;;;;;;;18.33;10.82;;;16.30;99.90;;;;;;5013028;28;20479;-79
2022/04/14 08:30:44;;;;;;;22.75;12.30;;;16.40;99.90;;;;;;5013161;28;20029;-79
2022/04/14 08:33:12;;;;;;;21.90;11.63;;;16.60;99.90;;;;;;5011329;28;20400;-81
2022/04/14 08:35:39;;;;;;;21.60;11.55;;;16.70;99.90;;;;;;5031550;28;20034;-79
2022/04/14 08:38:07;;;;;;;20.27;11.65;;;16.90;99.90;;;;;;5031300;28;20492;-79
2022/04/14 08:40:47;;;;;;;21.80;11.90;;;17.00;99.90;;;;;;5030258;28;20076;-81
2022/04/14 08:43:17;;;;;;;22.88;13.10;;;17.20;99.90;;;;;;5013110;28;20493;-81
2022/04/14 08:45:50;;;;;;;20.50;12.38;;;17.50;99.90;;;;;;5020942;28;20025;-81
2022/04/14 08:48:17;;;;;;;23.02;12.43;;;17.70;99.90;;;;;;5032355;28;20026;-81
2022/04/14 08:50:44;;;;;;;19.30;10.77;;;18.10;99.90;;;;;;5031278;28;20026;-81
2022/04/14 08:53:10;;;;;;;22.55;12.07;;;18.30;99.90;;;;;;5032479;28;20025;-80
2022/04/14 08:55:42;;;;;;;26.48;13.52;;;18.30;99.90;;;;;;5032390;28;20477;-81
2022/04/14 08:58:15;;;;;;;25.60;12.93;;;18.60;99.90;;;;;;5032268;28;20355;-72
2022/04/14 09:00:43;;;;;;;20.98;12.57;;;18.90;99.90;;;;;;5032823;28;20100;-73
2022/04/14 09:03:09;;;;;;;22.25;12.35;;;19.00;99.90;;;;;;5032510;28;20080;-72
2022/04/14 09:05:35;;;;;;;22.25;12.10;;;19.10;99.90;;;;;;5032506;28;20479;-72
2022/04/14 09:08:00;;;;;;;21.08;11.80;;;19.50;99.90;;;;;;5032316;28;20076;-70
2022/04/14 09:10:27;;;;;;;18.63;11.02;;;19.50;99.90;;;;;;5032579;28;20095;-72
2022/04/14 09:12:52;;;;;;;23.25;12.23;;;19.50;99.90;;;;;;5031206;28;20109;-72
2022/04/14 09:15:18;;;;;;;23.48;12.50;;;19.60;99.90;;;;;;5032448;28;20105;-72
2022/04/14 09:17:44;;;;;;;23.00;12.32;;;19.90;99.90;;;;;;5032448;28;20036;-71
2022/04/14 09:20:33;;;;;;;27.83;12.82;;;20.10;99.90;;;;;;5032918;28;20025;-72
2022/04/14 09:23:21;;;;;;;26.48;12.93;;;20.40;99.90;;;;;;5036235;28;20029;-71
2022/04/14 09:25:51;;;;;;;23.42;13.23;;;20.50;99.90;;;;;;5035966;28;20017;-72
2022/04/14 09:28:21;;;;;;;25.33;12.05;;;20.90;99.90;;;;;;5036064;28;20529;-72
2022/04/14 09:31:14;;;;;;;22.42;12.88;;;21.20;99.90;;;;;;5036077;28;20030;-72
2022/04/14 09:33:51;;;;;;;21.27;11.35;;;21.00;99.90;;;;;;5035863;28;20099;-72
2022/04/14 09:36:18;;;;;;;22.63;11.77;;;21.20;99.90;;;;;;5035850;28;20022;-69
2022/04/14 09:39:13;;;;;;;18.60;11.88;;;21.10;99.90;;;;;;5035679;28;20025;-71
2022/04/14 09:41:39;;;;;;;23.58;11.98;;;21.80;99.90;;;;;;5027127;28;20099;-71
2022/04/14 09:44:10;;;;;;;21.90;12.07;;;21.60;99.90;;;;;;5051537;28;20079;-71
2022/04/14 09:46:38;;;;;;;20.77;11.55;;;21.50;99.90;;;;;;5035892;28;20025;-71
2022/04/14 09:49:09;;;;;;;19.92;11.57;;;21.50;99.90;;;;;;5035625;28;20124;-71
2022/04/14 09:51:39;;;;;;;18.73;11.18;;;21.50;99.90;;;;;;5036244;28;20021;-70
2022/04/14 09:54:17;;;;;;;24.40;10.43;;;21.40;99.90;;;;;;5035509;28;20092;-71
2022/04/14 09:56:46;;;;;;;19.95;10.48;;;21.50;99.90;;;;;;5035543;28;20080;-71
2022/04/14 09:59:14;;;;;;;18.73;9.68;;;21.90;99.90;;;;;;5035358;28;20097;-70
2022/04/14 10:01:40;;;;;;;18.95;10.90;;;22.00;99.90;;;;;;5035736;28;20083;-70
2022/04/14 10:04:07;;;;;;;19.50;10.77;;;22.40;99.50;;;;;;5023737;28;20029;-70
2022/04/14 10:06:33;;;;;;;16.70;9.93;;;22.20;99.40;;;;;;5015646;28;20455;-70
2022/04/14 10:08:59;;;;;;;16.38;9.52;;;22.40;97.90;;;;;;5015383;28;20121;-70
2022/04/14 10:11:32;;;;;;;16.92;9.45;;;22.40;97.30;;;;;;5014094;28;20056;-70
2022/04/14 10:14:12;;;;;;;19.38;10.32;;;22.40;97.20;;;;;;5023797;28;20044;-76
2022/04/14 10:16:40;;;;;;;18.48;10.63;;;22.90;98.00;;;;;;5006775;28;20034;-76
2022/04/14 10:19:08;;;;;;;19.40;9.95;;;22.80;96.50;;;;;;5010590;28;20125;-76
2022/04/14 10:21:35;;;;;;;17.17;9.15;;;23.10;95.40;;;;;;5018418;28;20092;-74
2022/04/14 10:24:01;;;;;;;14.85;9.60;;;23.10;95.40;;;;;;5023879;28;20163;-73
2022/04/14 10:26:28;;;;;;;15.43;9.93;;;22.90;95.90;;;;;;5031601;28;20478;-73
2022/04/14 10:28:55;;;;;;;14.32;9.15;;;22.80;95.30;;;;;;5019070;28;20088;-73
2022/04/14 10:31:21;;;;;;;19.23;9.10;;;23.00;93.30;;;;;;5011319;28;20029;-73
2022/04/14 10:33:48;;;;;;;16.70;9.60;;;23.10;94.70;;;;;;5011114;28;20042;-73
2022/04/14 10:36:14;;;;;;;16.40;9.07;;;23.90;94.60;;;;;;5011820;28;20057;-73
2022/04/14 10:38:43;;;;;;;16.92;9.73;;;23.60;91.90;;;;;;5011994;28;20045;-73
2022/04/14 10:41:14;;;;;;;16.02;8.98;;;23.60;93.10;;;;;;5026950;28;20169;-74
2022/04/14 10:43:44;;;;;;;18.30;9.23;;;23.60;93.00;;;;;;5011305;28;20030;-73
2022/04/14 10:46:14;;;;;;;13.82;8.10;;;23.60;92.20;;;;;;5023404;28;20384;-73
2022/04/14 10:48:41;;;;;;;18.73;9.38;;;23.90;93.70;;;;;;5010172;28;20034;-72
2022/04/14 10:51:23;;;;;;;16.65;8.77;;;23.60;91.80;;;;;;5011012;28;20087;-74
2022/04/14 10:53:57;;;;;;;18.52;9.40;;;23.60;91.30;;;;;;5023734;28;20028;-69
2022/04/14 10:56:41;;;;;;;14.73;9.05;;;23.40;92.40;;;;;;5034465;28;20420;-70
2022/04/14 10:59:17;;;;;;;14.93;7.80;;;23.00;92.40;;;;;;5026763;28;20161;-78
2022/04/14 11:04:27;;;;;;;13.35;8.15;;;22.80;93.10;;;;;;5014183;28;20375;-75
2022/04/14 11:07:14;;;;;;;13.70;7.88;;;22.80;92.40;;;;;;5014158;28;20442;-75
2022/04/14 11:09:42;;;;;;;14.25;7.95;;;22.50;93.00;;;;;;5006589;28;20513;-76
2022/04/14 11:12:11;;;;;;;10.43;6.50;;;22.70;92.30;;;;;;5029499;28;20101;-76
2022/04/14 11:14:45;;;;;;;11.10;7.32;;;22.90;92.60;;;;;;5012278;28;20084;-78
2022/04/14 11:17:42;;;;;;;15.82;7.32;;;23.00;92.00;;;;;;5014184;28;20029;-75
2022/04/14 11:20:30;;;;;;;13.80;6.22;;;23.00;91.20;;;;;;5029294;28;20041;-75
2022/04/14 11:23:12;;;;;;;12.07;7.55;;;23.70;93.00;;;;;;5029136;28;20058;-75
2022/04/14 11:25:41;;;;;;;11.57;7.57;;;24.40;91.30;;;;;;5012777;28;20026;-75
2022/04/14 11:28:26;;;;;;;14.38;7.60;;;24.70;90.00;;;;;;5014007;28;20022;-76
2022/04/14 11:30:54;;;;;;;13.43;7.80;;;24.30;88.60;;;;;;5014090;28;20375;-76
2022/04/14 11:33:32;;;;;;;11.63;7.30;;;24.20;88.40;;;;;;5013212;28;20478;-77
2022/04/14 11:36:17;;;;;;;14.35;8.50;;;24.30;87.30;;;;;;5013964;28;20036;-77
2022/04/14 11:39:05;;;;;;;14.82;9.32;;;25.50;86.10;;;;;;5012795;28;20018;-77
2022/04/14 11:41:46;;;;;;;13.57;8.60;;;25.30;84.00;;;;;;5021746;28;20840;-77
2022/04/14 11:44:16;;;;;;;13.00;7.40;;;25.60;83.90;;;;;;5041797;28;20132;-76
2022/04/14 11:46:42;;;;;;;10.93;6.70;;;25.30;81.00;;;;;;5024043;28;20524;-76
2022/04/14 11:49:09;;;;;;;12.07;8.52;;;25.40;83.80;;;;;;5029286;28;20025;-72
2022/04/14 11:51:47;;;;;;;11.90;8.02;;;25.90;81.70;;;;;;5012453;28;20022;-72
2022/04/14 11:54:18;;;;;;;10.95;6.00;;;26.00;78.90;;;;;;5013768;28;20033;-72
2022/04/14 11:56:50;;;;;;;12.85;7.40;;;25.60;80.90;;;;;;5012350;28;20044;-71
2022/04/14 11:59:19;;;;;;;11.60;7.13;;;26.30;75.50;;;;;;5013856;28;20098;-71
2022/04/14 12:01:49;;;;;;;11.57;6.28;;;25.70;78.40;;;;;;5013506;28;20167;-71
2022/04/14 12:04:15;;;;;;;12.45;7.55;;;25.40;79.20;;;;;;5012270;28;20538;-72
2022/04/14 12:06:51;;;;;;;12.95;7.97;;;25.00;80.30;;;;;;5013677;28;20030;-71
2022/04/14 12:09:20;;;;;;;14.98;7.38;;;24.80;79.00;;;;;;5013741;28;20406;-72
2022/04/14 12:11:46;;;;;;;10.93;7.07;;;24.70;80.10;;;;;;5011900;28;20033;-71
2022/04/14 12:14:13;;;;;;;13.77;7.32;;;24.90;79.30;;;;;;5013287;28;20026;-72
2022/04/14 12:16:50;;;;;;;15.00;7.82;;;25.30;82.20;;;;;;5013413;28;20029;-71
2022/04/14 12:19:16;;;;;;;16.98;6.97;;;25.30;83.40;;;;;;5013328;28;20486;-72
2022/04/14 12:21:42;;;;;;;13.90;6.80;;;25.80;79.30;;;;;;5013322;28;20029;-72
2022/04/14 12:24:07;;;;;;;13.35;7.15;;;26.20;77.90;;;;;;5013425;28;20033;-72
2022/04/14 12:26:37;;;;;;;10.48;6.78;;;26.30;77.90;;;;;;5013203;28;20072;-72
2022/04/14 12:29:07;;;;;;;11.35;6.38;;;25.60;78.90;;;;;;5013493;28;20026;-72
2022/04/14 12:31:33;;;;;;;11.73;5.93;;;26.30;75.40;;;;;;5013089;28;20018;-72
2022/04/14 12:34:00;;;;;;;9.05;5.68;;;26.00;76.80;;;;;;5011936;28;20096;-72
2022/04/14 12:36:33;;;;;;;9.00;5.40;;;25.50;76.00;;;;;;5013326;28;20095;-72
2022/04/14 12:39:00;;;;;;;8.93;5.53;;;25.60;73.80;;;;;;5013100;28;20021;-72